sensor_id;sensor_type;location;lat;lon;timestamp;P1;durP1;ratioP1;P2;durP2;ratioP2
6356;SDS011;3211;53.452;-2.264;2023-08-01T00:01:11;9.90;;;2.23;;
6356;SDS011;3211;53.452;-2.264;2023-08-01T00:03:54;6.33;;;2.33;;
6356;SDS011;3211;53.452;-2.264;2023-08-01T00:06:36;12.63;;;2.77;;
6356;SDS011;3211;53.452;-2.264;2023-08-01T00:09:18;7.27;;;2.23;;
6356;SDS011;3211;53.452;-2.264;2023-08-01T00:12:00;5.90;;;2.27;;
6356;SDS011;3211;53.452;-2.264;2023-08-01T00:14:43;7.83;;;2.13;;
6356;SDS011;3211;53.452;-2.264;2023-08-01T00:17:25;7.83;;;2.43;;
6356;SDS011;3211;53.452;-2.264;2023-08-01T00:20:08;5.10;;;2.20;;
6356;SDS011;3211;53.452;-2.264;2023-08-01T00:22:50;6.60;;;2.70;;
6356;SDS011;3211;53.452;-2.264;2023-08-01T00:25:32;4.03;;;2.07;;
6356;SDS011;3211;53.452;-2.264;2023-08-01T00:28:14;4.97;;;2.30;;
6356;SDS011;3211;53.452;-2.264;2023-08-01T00:31:05;7.93;;;2.03;;
6356;SDS011;3211;53.452;-2.264;2023-08-01T00:33:48;11.00;;;2.40;;
6356;SDS011;3211;53.452;-2.264;2023-08-01T00:36:30;8.47;;;2.17;;
6356;SDS011;3211;53.452;-2.264;2023-08-01T00:39:13;3.93;;;2.00;;
6356;SDS011;3211;53.452;-2.264;2023-08-01T00:41:55;6.37;;;2.03;;
6356;SDS011;3211;53.452;-2.264;2023-08-01T00:44:37;7.20;;;2.27;;
6356;SDS011;3211;53.452;-2.264;2023-08-01T00:47:21;6.80;;;3.00;;
6356;SDS011;3211;53.452;-2.264;2023-08-01T00:50:04;13.77;;;2.37;;
6356;SDS011;3211;53.452;-2.264;2023-08-01T00:52:46;6.43;;;2.30;;
6356;SDS011;3211;53.452;-2.264;2023-08-01T00:55:29;6.40;;;2.13;;
6356;SDS011;3211;53.452;-2.264;2023-08-01T00:58:12;3.70;;;1.97;;
6356;SDS011;3211;53.452;-2.264;2023-08-01T01:00:54;9.17;;;2.20;;
6356;SDS011;3211;53.452;-2.264;2023-08-01T01:03:38;10.13;;;2.60;;
6356;SDS011;3211;53.452;-2.264;2023-08-01T01:06:22;10.40;;;2.50;;
6356;SDS011;3211;53.452;-2.264;2023-08-01T01:09:15;8.20;;;2.60;;
6356;SDS011;3211;53.452;-2.264;2023-08-01T01:11:57;6.30;;;2.40;;
6356;SDS011;3211;53.452;-2.264;2023-08-01T01:14:39;18.43;;;2.80;;
6356;SDS011;3211;53.452;-2.264;2023-08-01T01:17:21;7.40;;;2.30;;
6356;SDS011;3211;53.452;-2.264;2023-08-01T01:20:05;10.40;;;2.40;;
6356;SDS011;3211;53.452;-2.264;2023-08-01T01:22:49;4.63;;;2.10;;
6356;SDS011;3211;53.452;-2.264;2023-08-01T01:25:32;6.90;;;2.20;;
6356;SDS011;3211;53.452;-2.264;2023-08-01T01:28:16;5.83;;;2.30;;
6356;SDS011;3211;53.452;-2.264;2023-08-01T01:30:59;5.90;;;2.40;;
6356;SDS011;3211;53.452;-2.264;2023-08-01T01:33:43;6.70;;;2.47;;
6356;SDS011;3211;53.452;-2.264;2023-08-01T01:36:25;6.50;;;2.13;;
6356;SDS011;3211;53.452;-2.264;2023-08-01T01:39:08;8.87;;;2.27;;
6356;SDS011;3211;53.452;-2.264;2023-08-01T01:41:50;9.17;;;3.03;;
6356;SDS011;3211;53.452;-2.264;2023-08-01T01:44:32;6.83;;;2.17;;
6356;SDS011;3211;53.452;-2.264;2023-08-01T01:47:15;7.43;;;2.60;;
6356;SDS011;3211;53.452;-2.264;2023-08-01T01:49:57;9.70;;;2.20;;
6356;SDS011;3211;53.452;-2.264;2023-08-01T01:52:39;6.87;;;2.20;;
6356;SDS011;3211;53.452;-2.264;2023-08-01T01:55:22;7.17;;;2.43;;
6356;SDS011;3211;53.452;-2.264;2023-08-01T01:58:04;10.03;;;2.43;;
6356;SDS011;3211;53.452;-2.264;2023-08-01T02:00:48;11.63;;;2.50;;
6356;SDS011;3211;53.452;-2.264;2023-08-01T02:03:30;11.53;;;2.60;;
6356;SDS011;3211;53.452;-2.264;2023-08-01T02:06:12;5.70;;;2.33;;
6356;SDS011;3211;53.452;-2.264;2023-08-01T02:08:54;7.30;;;2.47;;
6356;SDS011;3211;53.452;-2.264;2023-08-01T02:11:37;14.40;;;2.47;;
6356;SDS011;3211;53.452;-2.264;2023-08-01T02:14:19;10.87;;;2.70;;
6356;SDS011;3211;53.452;-2.264;2023-08-01T02:17:01;6.17;;;2.33;;
6356;SDS011;3211;53.452;-2.264;2023-08-01T02:19:44;6.37;;;2.77;;
6356;SDS011;3211;53.452;-2.264;2023-08-01T02:22:26;8.53;;;2.50;;
6356;SDS011;3211;53.452;-2.264;2023-08-01T02:25:08;11.33;;;2.70;;
6356;SDS011;3211;53.452;-2.264;2023-08-01T02:27:52;7.07;;;2.43;;
6356;SDS011;3211;53.452;-2.264;2023-08-01T02:30:35;7.40;;;2.20;;
6356;SDS011;3211;53.452;-2.264;2023-08-01T02:33:18;13.53;;;2.73;;
6356;SDS011;3211;53.452;-2.264;2023-08-01T02:36:00;5.10;;;2.33;;
6356;SDS011;3211;53.452;-2.264;2023-08-01T02:38:43;9.17;;;2.20;;
6356;SDS011;3211;53.452;-2.264;2023-08-01T02:41:26;10.30;;;2.63;;
6356;SDS011;3211;53.452;-2.264;2023-08-01T02:44:09;7.93;;;2.70;;
6356;SDS011;3211;53.452;-2.264;2023-08-01T02:46:51;9.83;;;2.30;;
6356;SDS011;3211;53.452;-2.264;2023-08-01T02:49:33;6.83;;;2.30;;
6356;SDS011;3211;53.452;-2.264;2023-08-01T02:52:15;5.90;;;2.10;;
6356;SDS011;3211;53.452;-2.264;2023-08-01T02:54:57;6.63;;;2.30;;
6356;SDS011;3211;53.452;-2.264;2023-08-01T02:57:39;4.07;;;2.47;;
6356;SDS011;3211;53.452;-2.264;2023-08-01T03:00:22;10.07;;;2.40;;
6356;SDS011;3211;53.452;-2.264;2023-08-01T03:03:05;9.97;;;2.57;;
6356;SDS011;3211;53.452;-2.264;2023-08-01T03:05:48;7.93;;;3.20;;
6356;SDS011;3211;53.452;-2.264;2023-08-01T03:08:30;8.77;;;2.77;;
6356;SDS011;3211;53.452;-2.264;2023-08-01T03:11:12;7.80;;;2.63;;
6356;SDS011;3211;53.452;-2.264;2023-08-01T03:13:54;11.40;;;2.73;;
6356;SDS011;3211;53.452;-2.264;2023-08-01T03:16:37;10.23;;;3.10;;
6356;SDS011;3211;53.452;-2.264;2023-08-01T03:19:19;10.83;;;2.70;;
6356;SDS011;3211;53.452;-2.264;2023-08-01T03:22:01;10.67;;;3.13;;
6356;SDS011;3211;53.452;-2.264;2023-08-01T03:24:44;6.70;;;2.63;;
6356;SDS011;3211;53.452;-2.264;2023-08-01T03:27:26;7.77;;;2.97;;
6356;SDS011;3211;53.452;-2.264;2023-08-01T03:30:08;8.23;;;2.70;;
6356;SDS011;3211;53.452;-2.264;2023-08-01T03:32:52;12.10;;;3.77;;
6356;SDS011;3211;53.452;-2.264;2023-08-01T03:35:34;11.33;;;2.87;;
6356;SDS011;3211;53.452;-2.264;2023-08-01T03:38:16;9.33;;;3.17;;
6356;SDS011;3211;53.452;-2.264;2023-08-01T03:40:58;7.83;;;2.70;;
6356;SDS011;3211;53.452;-2.264;2023-08-01T03:43:41;7.13;;;2.50;;
6356;SDS011;3211;53.452;-2.264;2023-08-01T03:46:23;15.40;;;3.73;;
6356;SDS011;3211;53.452;-2.264;2023-08-01T03:49:06;11.23;;;2.93;;
6356;SDS011;3211;53.452;-2.264;2023-08-01T03:51:49;14.00;;;3.63;;
6356;SDS011;3211;53.452;-2.264;2023-08-01T03:54:31;11.70;;;3.30;;
6356;SDS011;3211;53.452;-2.264;2023-08-01T03:57:14;9.10;;;2.97;;
6356;SDS011;3211;53.452;-2.264;2023-08-01T03:59:56;6.80;;;2.80;;
6356;SDS011;3211;53.452;-2.264;2023-08-01T04:02:38;16.53;;;4.23;;
6356;SDS011;3211;53.452;-2.264;2023-08-01T04:05:22;13.53;;;3.57;;
6356;SDS011;3211;53.452;-2.264;2023-08-01T04:08:04;23.20;;;5.17;;
6356;SDS011;3211;53.452;-2.264;2023-08-01T04:10:46;13.90;;;3.37;;
6356;SDS011;3211;53.452;-2.264;2023-08-01T04:13:28;9.23;;;3.23;;
6356;SDS011;3211;53.452;-2.264;2023-08-01T04:16:10;11.17;;;2.87;;
6356;SDS011;3211;53.452;-2.264;2023-08-01T04:18:52;9.30;;;3.27;;
6356;SDS011;3211;53.452;-2.264;2023-08-01T04:21:35;10.53;;;3.40;;
6356;SDS011;3211;53.452;-2.264;2023-08-01T04:24:17;8.10;;;3.07;;
6356;SDS011;3211;53.452;-2.264;2023-08-01T04:26:59;13.87;;;3.07;;
6356;SDS011;3211;53.452;-2.264;2023-08-01T04:29:41;11.60;;;3.30;;
6356;SDS011;3211;53.452;-2.264;2023-08-01T04:32:23;8.00;;;2.97;;
6356;SDS011;3211;53.452;-2.264;2023-08-01T04:35:06;10.17;;;3.00;;
6356;SDS011;3211;53.452;-2.264;2023-08-01T04:37:50;11.90;;;3.40;;
6356;SDS011;3211;53.452;-2.264;2023-08-01T04:40:32;13.50;;;3.10;;
6356;SDS011;3211;53.452;-2.264;2023-08-01T04:43:14;11.10;;;3.17;;
6356;SDS011;3211;53.452;-2.264;2023-08-01T04:45:56;10.40;;;3.20;;
6356;SDS011;3211;53.452;-2.264;2023-08-01T04:48:38;12.80;;;3.83;;
6356;SDS011;3211;53.452;-2.264;2023-08-01T04:51:20;12.50;;;3.83;;
6356;SDS011;3211;53.452;-2.264;2023-08-01T04:54:03;7.70;;;3.10;;
6356;SDS011;3211;53.452;-2.264;2023-08-01T04:56:45;8.73;;;3.07;;
6356;SDS011;3211;53.452;-2.264;2023-08-01T04:59:27;13.27;;;2.80;;
6356;SDS011;3211;53.452;-2.264;2023-08-01T05:02:09;9.83;;;2.93;;
6356;SDS011;3211;53.452;-2.264;2023-08-01T05:04:51;8.17;;;3.13;;
6356;SDS011;3211;53.452;-2.264;2023-08-01T05:07:33;9.80;;;3.17;;
6356;SDS011;3211;53.452;-2.264;2023-08-01T05:10:16;4.20;;;2.57;;
6356;SDS011;3211;53.452;-2.264;2023-08-01T05:12:58;8.50;;;2.90;;
6356;SDS011;3211;53.452;-2.264;2023-08-01T05:15:40;11.43;;;2.63;;
6356;SDS011;3211;53.452;-2.264;2023-08-01T05:18:24;8.30;;;3.23;;
6356;SDS011;3211;53.452;-2.264;2023-08-01T05:21:06;13.47;;;2.60;;
6356;SDS011;3211;53.452;-2.264;2023-08-01T05:23:48;11.40;;;3.10;;
6356;SDS011;3211;53.452;-2.264;2023-08-01T05:26:32;8.53;;;2.80;;
6356;SDS011;3211;53.452;-2.264;2023-08-01T05:29:14;6.50;;;2.60;;
6356;SDS011;3211;53.452;-2.264;2023-08-01T05:31:56;12.90;;;2.90;;
6356;SDS011;3211;53.452;-2.264;2023-08-01T05:34:38;15.77;;;3.40;;
6356;SDS011;3211;53.452;-2.264;2023-08-01T05:37:20;7.40;;;2.73;;
6356;SDS011;3211;53.452;-2.264;2023-08-01T05:40:03;12.67;;;3.10;;
6356;SDS011;3211;53.452;-2.264;2023-08-01T05:42:47;17.97;;;4.77;;
6356;SDS011;3211;53.452;-2.264;2023-08-01T05:45:29;10.70;;;2.70;;
6356;SDS011;3211;53.452;-2.264;2023-08-01T05:48:11;14.30;;;3.30;;
6356;SDS011;3211;53.452;-2.264;2023-08-01T05:50:53;10.70;;;3.00;;
6356;SDS011;3211;53.452;-2.264;2023-08-01T05:53:36;11.43;;;3.07;;
6356;SDS011;3211;53.452;-2.264;2023-08-01T05:56:18;13.40;;;3.50;;
6356;SDS011;3211;53.452;-2.264;2023-08-01T05:59:01;16.53;;;2.83;;
6356;SDS011;3211;53.452;-2.264;2023-08-01T06:01:43;8.10;;;3.00;;
6356;SDS011;3211;53.452;-2.264;2023-08-01T06:04:25;14.53;;;3.37;;
6356;SDS011;3211;53.452;-2.264;2023-08-01T06:07:08;14.83;;;3.20;;
6356;SDS011;3211;53.452;-2.264;2023-08-01T06:09:50;16.33;;;3.70;;
6356;SDS011;3211;53.452;-2.264;2023-08-01T06:12:32;16.10;;;3.93;;
6356;SDS011;3211;53.452;-2.264;2023-08-01T06:15:16;10.27;;;3.20;;
6356;SDS011;3211;53.452;-2.264;2023-08-01T06:17:58;13.60;;;3.57;;
6356;SDS011;3211;53.452;-2.264;2023-08-01T06:20:40;12.93;;;3.13;;
6356;SDS011;3211;53.452;-2.264;2023-08-01T06:23:22;10.47;;;3.23;;
6356;SDS011;3211;53.452;-2.264;2023-08-01T06:26:04;11.20;;;3.30;;
6356;SDS011;3211;53.452;-2.264;2023-08-01T06:28:46;10.33;;;3.17;;
6356;SDS011;3211;53.452;-2.264;2023-08-01T06:31:30;14.57;;;3.27;;
6356;SDS011;3211;53.452;-2.264;2023-08-01T06:34:12;12.13;;;3.13;;
6356;SDS011;3211;53.452;-2.264;2023-08-01T06:36:54;11.57;;;2.87;;
6356;SDS011;3211;53.452;-2.264;2023-08-01T06:39:36;10.80;;;3.00;;
6356;SDS011;3211;53.452;-2.264;2023-08-01T06:42:18;10.00;;;2.97;;
6356;SDS011;3211;53.452;-2.264;2023-08-01T06:45:00;11.30;;;2.50;;
6356;SDS011;3211;53.452;-2.264;2023-08-01T06:47:43;11.00;;;2.77;;
6356;SDS011;3211;53.452;-2.264;2023-08-01T06:50:25;9.43;;;2.93;;
6356;SDS011;3211;53.452;-2.264;2023-08-01T06:53:07;9.20;;;3.43;;
6356;SDS011;3211;53.452;-2.264;2023-08-01T06:55:49;7.80;;;2.90;;
6356;SDS011;3211;53.452;-2.264;2023-08-01T06:58:31;7.77;;;2.67;;
6356;SDS011;3211;53.452;-2.264;2023-08-01T07:01:13;14.73;;;2.80;;
6356;SDS011;3211;53.452;-2.264;2023-08-01T07:03:57;8.17;;;2.80;;
6356;SDS011;3211;53.452;-2.264;2023-08-01T07:06:39;6.37;;;2.90;;
6356;SDS011;3211;53.452;-2.264;2023-08-01T07:09:21;11.07;;;4.20;;
6356;SDS011;3211;53.452;-2.264;2023-08-01T07:12:03;8.33;;;2.60;;
6356;SDS011;3211;53.452;-2.264;2023-08-01T07:14:47;10.83;;;2.90;;
6356;SDS011;3211;53.452;-2.264;2023-08-01T07:17:29;8.33;;;2.60;;
6356;SDS011;3211;53.452;-2.264;2023-08-01T07:20:12;11.10;;;3.00;;
6356;SDS011;3211;53.452;-2.264;2023-08-01T07:22:54;7.30;;;2.40;;
6356;SDS011;3211;53.452;-2.264;2023-08-01T07:25:36;4.73;;;2.13;;
6356;SDS011;3211;53.452;-2.264;2023-08-01T07:28:18;7.17;;;2.53;;
6356;SDS011;3211;53.452;-2.264;2023-08-01T07:31:00;10.37;;;2.77;;
6356;SDS011;3211;53.452;-2.264;2023-08-01T07:33:44;4.30;;;2.40;;
6356;SDS011;3211;53.452;-2.264;2023-08-01T07:36:27;6.30;;;2.50;;
6356;SDS011;3211;53.452;-2.264;2023-08-01T07:39:10;7.50;;;2.47;;
6356;SDS011;3211;53.452;-2.264;2023-08-01T07:41:52;4.93;;;2.73;;
6356;SDS011;3211;53.452;-2.264;2023-08-01T07:44:34;8.47;;;2.90;;
6356;SDS011;3211;53.452;-2.264;2023-08-01T07:47:16;4.90;;;2.37;;
6356;SDS011;3211;53.452;-2.264;2023-08-01T07:49:58;11.27;;;2.60;;
6356;SDS011;3211;53.452;-2.264;2023-08-01T07:52:42;9.13;;;3.20;;
6356;SDS011;3211;53.452;-2.264;2023-08-01T07:55:24;8.00;;;2.93;;
6356;SDS011;3211;53.452;-2.264;2023-08-01T07:58:05;8.93;;;2.40;;
6356;SDS011;3211;53.452;-2.264;2023-08-01T08:00:47;9.23;;;2.60;;
6356;SDS011;3211;53.452;-2.264;2023-08-01T08:03:29;5.90;;;2.07;;
6356;SDS011;3211;53.452;-2.264;2023-08-01T08:06:11;9.23;;;2.50;;
6356;SDS011;3211;53.452;-2.264;2023-08-01T08:08:55;8.90;;;2.43;;
6356;SDS011;3211;53.452;-2.264;2023-08-01T08:11:37;4.93;;;2.00;;
6356;SDS011;3211;53.452;-2.264;2023-08-01T08:14:19;9.93;;;2.83;;
6356;SDS011;3211;53.452;-2.264;2023-08-01T08:17:03;7.80;;;2.13;;
6356;SDS011;3211;53.452;-2.264;2023-08-01T08:19:46;13.37;;;2.40;;
6356;SDS011;3211;53.452;-2.264;2023-08-01T08:22:28;8.50;;;2.70;;
6356;SDS011;3211;53.452;-2.264;2023-08-01T08:25:12;8.17;;;2.30;;
6356;SDS011;3211;53.452;-2.264;2023-08-01T08:27:54;8.90;;;2.60;;
6356;SDS011;3211;53.452;-2.264;2023-08-01T08:30:36;5.93;;;2.70;;
6356;SDS011;3211;53.452;-2.264;2023-08-01T08:33:19;6.63;;;2.53;;
6356;SDS011;3211;53.452;-2.264;2023-08-01T08:36:02;6.10;;;2.53;;
6356;SDS011;3211;53.452;-2.264;2023-08-01T08:38:44;5.97;;;2.60;;
6356;SDS011;3211;53.452;-2.264;2023-08-01T08:41:27;7.00;;;2.50;;
6356;SDS011;3211;53.452;-2.264;2023-08-01T08:44:16;9.60;;;2.40;;
6356;SDS011;3211;53.452;-2.264;2023-08-01T08:47:02;6.00;;;2.37;;
6356;SDS011;3211;53.452;-2.264;2023-08-01T08:49:45;6.17;;;2.40;;
6356;SDS011;3211;53.452;-2.264;2023-08-01T08:52:28;7.80;;;2.27;;
6356;SDS011;3211;53.452;-2.264;2023-08-01T08:55:10;8.37;;;2.70;;
6356;SDS011;3211;53.452;-2.264;2023-08-01T08:57:55;6.70;;;2.30;;
6356;SDS011;3211;53.452;-2.264;2023-08-01T09:00:37;9.13;;;2.40;;
6356;SDS011;3211;53.452;-2.264;2023-08-01T09:03:19;5.53;;;2.00;;
6356;SDS011;3211;53.452;-2.264;2023-08-01T09:06:02;8.37;;;2.37;;
6356;SDS011;3211;53.452;-2.264;2023-08-01T09:08:53;6.07;;;2.70;;
6356;SDS011;3211;53.452;-2.264;2023-08-01T09:11:39;5.80;;;2.30;;
6356;SDS011;3211;53.452;-2.264;2023-08-01T09:14:25;7.90;;;1.90;;
6356;SDS011;3211;53.452;-2.264;2023-08-01T09:17:07;4.53;;;2.17;;
6356;SDS011;3211;53.452;-2.264;2023-08-01T09:19:54;8.50;;;2.50;;
6356;SDS011;3211;53.452;-2.264;2023-08-01T09:22:43;5.53;;;2.63;;
6356;SDS011;3211;53.452;-2.264;2023-08-01T09:25:30;7.80;;;1.87;;
6356;SDS011;3211;53.452;-2.264;2023-08-01T09:28:17;6.93;;;2.17;;
6356;SDS011;3211;53.452;-2.264;2023-08-01T09:31:01;3.73;;;1.60;;
6356;SDS011;3211;53.452;-2.264;2023-08-01T09:33:43;5.20;;;2.10;;
6356;SDS011;3211;53.452;-2.264;2023-08-01T09:36:25;5.40;;;2.13;;
6356;SDS011;3211;53.452;-2.264;2023-08-01T09:39:08;6.00;;;2.40;;
6356;SDS011;3211;53.452;-2.264;2023-08-01T09:41:57;6.60;;;2.33;;
6356;SDS011;3211;53.452;-2.264;2023-08-01T09:44:44;3.67;;;1.67;;
6356;SDS011;3211;53.452;-2.264;2023-08-01T09:47:36;5.03;;;1.70;;
6356;SDS011;3211;53.452;-2.264;2023-08-01T09:50:22;6.50;;;1.83;;
6356;SDS011;3211;53.452;-2.264;2023-08-01T09:53:08;4.80;;;1.80;;
6356;SDS011;3211;53.452;-2.264;2023-08-01T09:55:50;6.20;;;2.07;;
6356;SDS011;3211;53.452;-2.264;2023-08-01T09:58:34;7.27;;;2.17;;
6356;SDS011;3211;53.452;-2.264;2023-08-01T10:01:21;3.97;;;2.07;;
6356;SDS011;3211;53.452;-2.264;2023-08-01T10:04:06;6.90;;;2.10;;
6356;SDS011;3211;53.452;-2.264;2023-08-01T10:06:52;6.73;;;2.57;;
6356;SDS011;3211;53.452;-2.264;2023-08-01T10:09:36;2.90;;;1.90;;
6356;SDS011;3211;53.452;-2.264;2023-08-01T10:12:19;6.17;;;2.00;;
6356;SDS011;3211;53.452;-2.264;2023-08-01T10:15:01;14.20;;;3.40;;
6356;SDS011;3211;53.452;-2.264;2023-08-01T10:17:46;4.37;;;1.87;;
6356;SDS011;3211;53.452;-2.264;2023-08-01T10:20:29;9.07;;;2.10;;
6356;SDS011;3211;53.452;-2.264;2023-08-01T10:23:12;4.10;;;2.07;;
6356;SDS011;3211;53.452;-2.264;2023-08-01T10:25:54;4.40;;;1.90;;
6356;SDS011;3211;53.452;-2.264;2023-08-01T10:28:37;5.20;;;1.87;;
6356;SDS011;3211;53.452;-2.264;2023-08-01T10:31:20;7.67;;;2.53;;
6356;SDS011;3211;53.452;-2.264;2023-08-01T10:34:04;6.43;;;2.27;;
6356;SDS011;3211;53.452;-2.264;2023-08-01T10:36:54;7.80;;;2.17;;
6356;SDS011;3211;53.452;-2.264;2023-08-01T10:39:37;10.43;;;2.70;;
6356;SDS011;3211;53.452;-2.264;2023-08-01T10:42:19;7.60;;;2.60;;
6356;SDS011;3211;53.452;-2.264;2023-08-01T10:45:01;4.70;;;2.00;;
6356;SDS011;3211;53.452;-2.264;2023-08-01T10:47:43;9.10;;;2.70;;
6356;SDS011;3211;53.452;-2.264;2023-08-01T10:50:25;7.13;;;2.57;;
6356;SDS011;3211;53.452;-2.264;2023-08-01T10:53:09;5.27;;;2.50;;
6356;SDS011;3211;53.452;-2.264;2023-08-01T10:55:51;3.40;;;2.30;;
6356;SDS011;3211;53.452;-2.264;2023-08-01T10:58:33;7.50;;;2.40;;
6356;SDS011;3211;53.452;-2.264;2023-08-01T11:01:15;5.33;;;2.13;;
6356;SDS011;3211;53.452;-2.264;2023-08-01T11:03:57;4.70;;;2.57;;
6356;SDS011;3211;53.452;-2.264;2023-08-01T11:06:42;7.90;;;2.70;;
6356;SDS011;3211;53.452;-2.264;2023-08-01T11:09:27;7.10;;;2.67;;
6356;SDS011;3211;53.452;-2.264;2023-08-01T11:12:09;18.97;;;3.17;;
6356;SDS011;3211;53.452;-2.264;2023-08-01T11:14:51;19.33;;;2.97;;
6356;SDS011;3211;53.452;-2.264;2023-08-01T11:17:33;7.40;;;2.50;;
6356;SDS011;3211;53.452;-2.264;2023-08-01T11:20:16;5.33;;;2.50;;
6356;SDS011;3211;53.452;-2.264;2023-08-01T11:23:00;8.03;;;2.10;;
6356;SDS011;3211;53.452;-2.264;2023-08-01T11:25:45;7.53;;;2.10;;
6356;SDS011;3211;53.452;-2.264;2023-08-01T11:28:29;4.10;;;1.90;;
6356;SDS011;3211;53.452;-2.264;2023-08-01T11:31:11;3.83;;;1.97;;
6356;SDS011;3211;53.452;-2.264;2023-08-01T11:33:56;5.93;;;2.30;;
6356;SDS011;3211;53.452;-2.264;2023-08-01T11:36:39;4.07;;;2.50;;
6356;SDS011;3211;53.452;-2.264;2023-08-01T11:39:21;4.50;;;1.93;;
6356;SDS011;3211;53.452;-2.264;2023-08-01T11:42:05;5.47;;;1.93;;
6356;SDS011;3211;53.452;-2.264;2023-08-01T11:44:47;10.33;;;2.20;;
6356;SDS011;3211;53.452;-2.264;2023-08-01T11:47:29;5.20;;;2.23;;
6356;SDS011;3211;53.452;-2.264;2023-08-01T11:50:20;5.60;;;2.47;;
6356;SDS011;3211;53.452;-2.264;2023-08-01T11:53:03;3.80;;;1.63;;
6356;SDS011;3211;53.452;-2.264;2023-08-01T11:55:45;5.80;;;2.03;;
6356;SDS011;3211;53.452;-2.264;2023-08-01T11:58:29;4.00;;;2.00;;
6356;SDS011;3211;53.452;-2.264;2023-08-01T12:01:12;4.60;;;2.00;;
6356;SDS011;3211;53.452;-2.264;2023-08-01T12:03:54;6.70;;;2.23;;
6356;SDS011;3211;53.452;-2.264;2023-08-01T12:06:38;5.87;;;2.60;;
6356;SDS011;3211;53.452;-2.264;2023-08-01T12:09:20;8.10;;;2.37;;
6356;SDS011;3211;53.452;-2.264;2023-08-01T12:12:03;9.27;;;2.00;;
6356;SDS011;3211;53.452;-2.264;2023-08-01T12:14:46;4.00;;;2.00;;
6356;SDS011;3211;53.452;-2.264;2023-08-01T12:17:28;4.50;;;1.87;;
6356;SDS011;3211;53.452;-2.264;2023-08-01T12:20:11;4.40;;;1.90;;
6356;SDS011;3211;53.452;-2.264;2023-08-01T12:22:53;3.13;;;1.73;;
6356;SDS011;3211;53.452;-2.264;2023-08-01T12:25:35;3.90;;;1.87;;
6356;SDS011;3211;53.452;-2.264;2023-08-01T12:28:17;6.13;;;1.90;;
6356;SDS011;3211;53.452;-2.264;2023-08-01T12:31:00;6.60;;;2.40;;
6356;SDS011;3211;53.452;-2.264;2023-08-01T12:33:43;6.50;;;2.23;;
6356;SDS011;3211;53.452;-2.264;2023-08-01T12:36:26;7.50;;;2.50;;
6356;SDS011;3211;53.452;-2.264;2023-08-01T12:39:08;3.60;;;1.70;;
6356;SDS011;3211;53.452;-2.264;2023-08-01T12:41:51;3.50;;;2.07;;
6356;SDS011;3211;53.452;-2.264;2023-08-01T12:44:33;3.73;;;1.73;;
6356;SDS011;3211;53.452;-2.264;2023-08-01T12:47:17;7.03;;;1.97;;
6356;SDS011;3211;53.452;-2.264;2023-08-01T12:49:59;4.20;;;1.70;;
6356;SDS011;3211;53.452;-2.264;2023-08-01T12:52:40;5.03;;;1.77;;
6356;SDS011;3211;53.452;-2.264;2023-08-01T12:55:22;6.10;;;2.00;;
6356;SDS011;3211;53.452;-2.264;2023-08-01T12:58:04;6.10;;;2.37;;
6356;SDS011;3211;53.452;-2.264;2023-08-01T13:00:46;6.37;;;2.20;;
6356;SDS011;3211;53.452;-2.264;2023-08-01T13:03:30;7.60;;;2.57;;
6356;SDS011;3211;53.452;-2.264;2023-08-01T13:06:12;2.90;;;1.73;;
6356;SDS011;3211;53.452;-2.264;2023-08-01T13:08:54;3.50;;;1.50;;
6356;SDS011;3211;53.452;-2.264;2023-08-01T13:11:36;5.27;;;1.90;;
6356;SDS011;3211;53.452;-2.264;2023-08-01T13:14:17;2.77;;;1.80;;
6356;SDS011;3211;53.452;-2.264;2023-08-01T13:16:59;3.27;;;1.63;;
6356;SDS011;3211;53.452;-2.264;2023-08-01T13:19:43;4.80;;;1.70;;
6356;SDS011;3211;53.452;-2.264;2023-08-01T13:22:26;3.07;;;1.80;;
6356;SDS011;3211;53.452;-2.264;2023-08-01T13:25:08;3.00;;;1.60;;
6356;SDS011;3211;53.452;-2.264;2023-08-01T13:27:50;2.40;;;1.30;;
6356;SDS011;3211;53.452;-2.264;2023-08-01T13:30:32;3.67;;;1.80;;
6356;SDS011;3211;53.452;-2.264;2023-08-01T13:33:14;4.50;;;1.50;;
6356;SDS011;3211;53.452;-2.264;2023-08-01T13:35:57;3.30;;;2.00;;
6356;SDS011;3211;53.452;-2.264;2023-08-01T13:38:39;4.67;;;1.90;;
6356;SDS011;3211;53.452;-2.264;2023-08-01T13:41:21;5.17;;;1.83;;
6356;SDS011;3211;53.452;-2.264;2023-08-01T13:44:04;4.33;;;1.63;;
6356;SDS011;3211;53.452;-2.264;2023-08-01T13:46:46;1.50;;;1.27;;
6356;SDS011;3211;53.452;-2.264;2023-08-01T13:49:28;2.30;;;1.60;;
6356;SDS011;3211;53.452;-2.264;2023-08-01T13:52:12;3.90;;;1.50;;
6356;SDS011;3211;53.452;-2.264;2023-08-01T13:54:55;2.10;;;1.40;;
6356;SDS011;3211;53.452;-2.264;2023-08-01T13:57:37;2.30;;;1.63;;
6356;SDS011;3211;53.452;-2.264;2023-08-01T14:00:19;4.40;;;1.43;;
6356;SDS011;3211;53.452;-2.264;2023-08-01T14:03:01;2.60;;;1.60;;
6356;SDS011;3211;53.452;-2.264;2023-08-01T14:05:43;2.70;;;1.47;;
6356;SDS011;3211;53.452;-2.264;2023-08-01T14:08:27;4.50;;;1.53;;
6356;SDS011;3211;53.452;-2.264;2023-08-01T14:11:09;2.90;;;1.50;;
6356;SDS011;3211;53.452;-2.264;2023-08-01T14:13:52;3.03;;;1.50;;
6356;SDS011;3211;53.452;-2.264;2023-08-01T14:16:37;4.53;;;1.70;;
6356;SDS011;3211;53.452;-2.264;2023-08-01T14:19:19;4.20;;;1.70;;
6356;SDS011;3211;53.452;-2.264;2023-08-01T14:22:01;2.90;;;1.90;;
6356;SDS011;3211;53.452;-2.264;2023-08-01T14:24:45;3.00;;;1.60;;
6356;SDS011;3211;53.452;-2.264;2023-08-01T14:27:27;4.00;;;1.70;;
6356;SDS011;3211;53.452;-2.264;2023-08-01T14:30:09;3.67;;;1.60;;
6356;SDS011;3211;53.452;-2.264;2023-08-01T14:32:51;1.93;;;1.37;;
6356;SDS011;3211;53.452;-2.264;2023-08-01T14:35:40;3.53;;;1.57;;
6356;SDS011;3211;53.452;-2.264;2023-08-01T14:38:22;4.30;;;1.80;;
6356;SDS011;3211;53.452;-2.264;2023-08-01T14:41:06;2.17;;;1.40;;
6356;SDS011;3211;53.452;-2.264;2023-08-01T14:43:47;2.60;;;1.47;;
6356;SDS011;3211;53.452;-2.264;2023-08-01T14:46:29;3.03;;;1.47;;
6356;SDS011;3211;53.452;-2.264;2023-08-01T14:49:11;3.20;;;1.50;;
6356;SDS011;3211;53.452;-2.264;2023-08-01T14:51:53;2.30;;;1.40;;
6356;SDS011;3211;53.452;-2.264;2023-08-01T14:54:35;3.87;;;1.87;;
6356;SDS011;3211;53.452;-2.264;2023-08-01T14:57:19;4.70;;;1.93;;
6356;SDS011;3211;53.452;-2.264;2023-08-01T15:00:01;3.07;;;1.40;;
6356;SDS011;3211;53.452;-2.264;2023-08-01T15:02:43;3.73;;;1.60;;
6356;SDS011;3211;53.452;-2.264;2023-08-01T15:05:25;2.70;;;1.57;;
6356;SDS011;3211;53.452;-2.264;2023-08-01T15:08:07;3.33;;;1.40;;
6356;SDS011;3211;53.452;-2.264;2023-08-01T15:10:49;4.10;;;1.43;;
6356;SDS011;3211;53.452;-2.264;2023-08-01T15:13:33;2.73;;;1.40;;
6356;SDS011;3211;53.452;-2.264;2023-08-01T15:16:15;1.53;;;1.30;;
6356;SDS011;3211;53.452;-2.264;2023-08-01T15:18:57;4.73;;;1.97;;
6356;SDS011;3211;53.452;-2.264;2023-08-01T15:21:39;4.30;;;1.33;;
6356;SDS011;3211;53.452;-2.264;2023-08-01T15:24:21;1.40;;;1.30;;
6356;SDS011;3211;53.452;-2.264;2023-08-01T15:27:03;2.23;;;1.40;;
6356;SDS011;3211;53.452;-2.264;2023-08-01T15:29:46;3.30;;;1.70;;
6356;SDS011;3211;53.452;-2.264;2023-08-01T15:32:28;3.30;;;1.63;;
6356;SDS011;3211;53.452;-2.264;2023-08-01T15:35:10;2.17;;;1.57;;
6356;SDS011;3211;53.452;-2.264;2023-08-01T15:37:52;3.70;;;1.67;;
6356;SDS011;3211;53.452;-2.264;2023-08-01T15:40:34;2.13;;;1.50;;
6356;SDS011;3211;53.452;-2.264;2023-08-01T15:43:16;2.70;;;1.50;;
6356;SDS011;3211;53.452;-2.264;2023-08-01T15:45:59;2.33;;;1.20;;
6356;SDS011;3211;53.452;-2.264;2023-08-01T15:48:41;3.63;;;1.50;;
6356;SDS011;3211;53.452;-2.264;2023-08-01T15:51:23;6.07;;;1.60;;
6356;SDS011;3211;53.452;-2.264;2023-08-01T15:54:05;5.80;;;1.40;;
6356;SDS011;3211;53.452;-2.264;2023-08-01T15:56:47;2.90;;;1.37;;
6356;SDS011;3211;53.452;-2.264;2023-08-01T15:59:29;2.47;;;1.50;;
6356;SDS011;3211;53.452;-2.264;2023-08-01T16:02:13;3.37;;;1.60;;
6356;SDS011;3211;53.452;-2.264;2023-08-01T16:04:55;2.93;;;1.70;;
6356;SDS011;3211;53.452;-2.264;2023-08-01T16:07:37;3.27;;;1.47;;
6356;SDS011;3211;53.452;-2.264;2023-08-01T16:10:19;3.60;;;1.67;;
6356;SDS011;3211;53.452;-2.264;2023-08-01T16:13:01;2.57;;;1.60;;
6356;SDS011;3211;53.452;-2.264;2023-08-01T16:15:43;3.57;;;1.50;;
6356;SDS011;3211;53.452;-2.264;2023-08-01T16:18:27;3.27;;;1.50;;
6356;SDS011;3211;53.452;-2.264;2023-08-01T16:21:08;2.60;;;1.57;;
6356;SDS011;3211;53.452;-2.264;2023-08-01T16:23:50;4.40;;;1.97;;
6356;SDS011;3211;53.452;-2.264;2023-08-01T16:26:32;4.33;;;1.60;;
6356;SDS011;3211;53.452;-2.264;2023-08-01T16:29:14;5.40;;;2.00;;
6356;SDS011;3211;53.452;-2.264;2023-08-01T16:31:56;3.03;;;1.70;;